Time;durP1;ratioP1;P1;durP2;ratioP2;P2;SDS_P1;SDS_P2;PMS_P1;PMS_P2;Temp;Humidity;BMP_temperature;BMP_pressure;BME280_temperature;BME280_humidity;BME280_pressure;Samples;Min_cycle;Max_cycle;Signal;HPM_P1;HPM_P2
2023/05/28 00:02:07;;;;;;;5.50;2.95;;;16.10;99.90;;;;;;4999274;28;20095;-69
2023/05/28 00:04:32;;;;;;;6.80;3.00;;;16.10;99.90;;;;;;4999866;28;20046;-69
2023/05/28 00:06:58;;;;;;;7.05;3.10;;;16.10;99.90;;;;;;4999182;28;20105;-69
2023/05/28 00:09:23;;;;;;;9.30;3.40;;;16.10;99.90;;;;;;4998830;28;20076;-69
2023/05/28 00:11:49;;;;;;;7.28;3.38;;;16.00;99.90;;;;;;4998814;28;20037;-69
2023/05/28 00:14:15;;;;;;;8.88;3.60;;;15.90;99.90;;;;;;4999626;28;20038;-69
2023/05/28 00:16:43;;;;;;;14.05;3.40;;;15.80;99.90;;;;;;4998665;28;20030;-69
2023/05/28 00:19:09;;;;;;;14.70;3.53;;;15.80;99.90;;;;;;4998682;28;20023;-69
2023/05/28 00:21:36;;;;;;;6.18;3.25;;;15.60;99.90;;;;;;4999489;28;20026;-69
2023/05/28 00:24:02;;;;;;;9.23;3.75;;;15.50;99.90;;;;;;4999251;28;20037;-69
2023/05/28 00:26:29;;;;;;;9.30;3.58;;;15.60;99.90;;;;;;5023397;22;20052;-68
2023/05/28 00:28:55;;;;;;;8.00;3.67;;;15.30;99.90;;;;;;4998353;28;20113;-68
2023/05/28 00:31:20;;;;;;;8.55;3.63;;;15.40;99.90;;;;;;4998407;28;20026;-68
2023/05/28 00:33:46;;;;;;;11.00;3.42;;;15.50;99.90;;;;;;4998807;28;20038;-68
2023/05/28 00:36:15;;;;;;;9.25;3.58;;;15.50;99.90;;;;;;4998288;28;20053;-68
2023/05/28 00:38:41;;;;;;;11.15;3.70;;;15.40;99.90;;;;;;4998283;28;20073;-68
2023/05/28 00:41:06;;;;;;;10.30;3.55;;;15.40;99.90;;;;;;4998290;28;20054;-68
2023/05/28 00:43:32;;;;;;;7.38;3.15;;;15.20;99.90;;;;;;4998029;28;20034;-68
2023/05/28 00:46:01;;;;;;;7.50;3.40;;;15.20;99.90;;;;;;4998070;28;20022;-68
2023/05/28 00:48:27;;;;;;;10.02;3.20;;;15.10;99.90;;;;;;4997980;28;20088;-68
2023/05/28 00:50:53;;;;;;;12.32;3.47;;;15.00;99.90;;;;;;4997931;28;20026;-68
2023/05/28 00:53:19;;;;;;;15.35;4.10;;;15.00;99.90;;;;;;4998080;28;20033;-68
2023/05/28 00:55:45;;;;;;;10.30;3.25;;;15.10;99.90;;;;;;4998077;28;20026;-68
2023/05/28 00:58:11;;;;;;;8.63;3.50;;;15.00;99.90;;;;;;4998847;28;20033;-68
2023/05/28 01:00:37;;;;;;;25.55;4.50;;;15.00;99.90;;;;;;4997787;28;20088;-68
2023/05/28 01:03:04;;;;;;;10.32;3.47;;;15.00;99.90;;;;;;4997668;28;20030;-68
2023/05/28 01:05:31;;;;;;;12.93;3.92;;;15.00;99.90;;;;;;4997076;28;20088;-68
2023/05/28 01:08:00;;;;;;;7.18;3.83;;;15.00;99.90;;;;;;4998194;28;20023;-68
2023/05/28 01:10:26;;;;;;;7.43;3.55;;;14.90;99.90;;;;;;4998588;28;20022;-68
2023/05/28 01:12:52;;;;;;;8.13;4.25;;;14.90;99.90;;;;;;4999034;28;20030;-68
2023/05/28 01:15:18;;;;;;;8.98;3.97;;;14.90;99.90;;;;;;4997807;28;20073;-68
2023/05/28 01:17:45;;;;;;;8.50;3.20;;;14.80;99.90;;;;;;4997554;28;20022;-68
2023/05/28 01:20:13;;;;;;;10.43;4.07;;;14.90;99.90;;;;;;4998084;28;20029;-68
2023/05/28 01:22:45;;;;;;;9.70;3.55;;;15.00;99.90;;;;;;4997377;28;20022;-68
2023/05/28 01:25:12;;;;;;;9.07;3.70;;;14.90;99.90;;;;;;4997274;28;20087;-68
2023/05/28 01:27:41;;;;;;;11.77;3.92;;;14.70;99.90;;;;;;4998358;28;20130;-68
2023/05/28 01:30:11;;;;;;;9.63;3.30;;;14.70;99.90;;;;;;4997620;28;20030;-68
2023/05/28 01:32:37;;;;;;;11.38;3.88;;;14.50;99.90;;;;;;4997295;28;20045;-68
2023/05/28 01:35:05;;;;;;;8.88;3.75;;;14.40;99.90;;;;;;4997140;28;20069;-68
2023/05/28 01:37:33;;;;;;;7.25;3.33;;;14.40;99.90;;;;;;4997246;28;20104;-68
2023/05/28 01:40:01;;;;;;;6.15;3.40;;;14.40;99.90;;;;;;4997432;28;20026;-68
2023/05/28 01:42:28;;;;;;;12.00;3.58;;;14.30;99.90;;;;;;4997441;28;20022;-68
2023/05/28 01:44:54;;;;;;;7.90;3.80;;;14.40;99.90;;;;;;4996915;28;20026;-68
2023/05/28 01:47:20;;;;;;;10.00;3.97;;;14.50;99.90;;;;;;4998024;28;20029;-68
2023/05/28 01:49:46;;;;;;;9.18;4.07;;;14.50;99.90;;;;;;4997016;28;20053;-68
2023/05/28 01:52:15;;;;;;;11.15;3.97;;;14.40;99.90;;;;;;4997046;28;20117;-68
2023/05/28 01:54:41;;;;;;;8.18;3.50;;;14.40;99.90;;;;;;4996924;28;20050;-68
2023/05/28 01:57:06;;;;;;;7.25;3.83;;;14.40;99.90;;;;;;4997300;28;20053;-68
2023/05/28 01:59:32;;;;;;;11.07;3.58;;;14.40;99.90;;;;;;4997766;28;20057;-68
2023/05/28 02:01:58;;;;;;;6.80;3.13;;;14.40;99.90;;;;;;4997896;28;20030;-68
2023/05/28 02:04:24;;;;;;;7.82;3.75;;;14.20;99.90;;;;;;4997499;28;20030;-68
2023/05/28 02:06:50;;;;;;;6.13;3.50;;;14.20;99.90;;;;;;4996802;28;20031;-68
2023/05/28 02:09:15;;;;;;;7.80;3.42;;;14.30;99.90;;;;;;4997662;28;20026;-68
2023/05/28 02:11:41;;;;;;;8.35;3.17;;;14.40;99.90;;;;;;4998314;28;20022;-68
2023/05/28 02:14:06;;;;;;;9.60;3.53;;;14.40;99.90;;;;;;4997111;28;20034;-68
2023/05/28 02:16:32;;;;;;;9.43;3.75;;;14.40;99.90;;;;;;4998615;28;20038;-68
2023/05/28 02:18:58;;;;;;;11.82;4.15;;;14.40;99.90;;;;;;5001997;28;20022;-68
2023/05/28 02:21:24;;;;;;;5.70;2.75;;;14.40;99.90;;;;;;5001868;28;20029;-68
2023/05/28 02:23:50;;;;;;;9.43;3.65;;;14.30;99.90;;;;;;5001767;28;20038;-68
2023/05/28 02:26:17;;;;;;;10.63;4.45;;;14.30;99.90;;;;;;5001651;28;20057;-68
2023/05/28 02:28:43;;;;;;;9.05;3.88;;;14.20;99.90;;;;;;5000610;28;20027;-68
2023/05/28 02:31:12;;;;;;;9.68;3.50;;;14.20;99.90;;;;;;5001460;28;20019;-68
2023/05/28 02:33:39;;;;;;;8.13;3.50;;;14.20;99.90;;;;;;5000863;28;20085;-68
2023/05/28 02:36:06;;;;;;;8.48;3.58;;;14.10;99.90;;;;;;5001570;28;20033;-68
2023/05/28 02:38:32;;;;;;;14.20;4.13;;;14.20;99.90;;;;;;5000500;28;20026;-68
2023/05/28 02:40:57;;;;;;;9.85;3.22;;;14.20;99.90;;;;;;5001230;28;20034;-68
2023/05/28 02:43:23;;;;;;;10.70;3.38;;;14.30;99.90;;;;;;5001243;28;20036;-68
2023/05/28 02:45:48;;;;;;;9.32;3.00;;;14.30;99.90;;;;;;5000223;28;20030;-68
2023/05/28 02:48:14;;;;;;;11.60;3.50;;;14.30;99.90;;;;;;5000344;28;20029;-68
2023/05/28 02:50:39;;;;;;;6.53;3.58;;;14.20;99.90;;;;;;5000615;28;20031;-68
2023/05/28 02:53:05;;;;;;;10.32;3.55;;;14.10;99.90;;;;;;5000279;28;20030;-68
2023/05/28 02:55:30;;;;;;;10.98;4.10;;;14.00;99.90;;;;;;5001060;28;20030;-68
2023/05/28 02:57:56;;;;;;;6.55;3.85;;;14.00;99.90;;;;;;5000585;28;20033;-68
2023/05/28 03:00:22;;;;;;;8.48;3.70;;;14.00;99.90;;;;;;5000023;28;20022;-68
2023/05/28 03:02:47;;;;;;;13.43;3.67;;;14.00;99.90;;;;;;4999911;28;20027;-68
2023/05/28 03:05:13;;;;;;;10.10;3.50;;;14.00;99.90;;;;;;5000256;28;20053;-68
2023/05/28 03:07:39;;;;;;;16.25;4.15;;;13.80;99.90;;;;;;5000006;28;20029;-68
2023/05/28 03:10:05;;;;;;;10.27;3.80;;;13.70;99.90;;;;;;5000117;28;20029;-68
2023/05/28 03:12:30;;;;;;;9.25;3.22;;;13.40;99.90;;;;;;4999744;28;20018;-68
2023/05/28 03:14:56;;;;;;;8.70;3.58;;;13.20;99.90;;;;;;5000539;28;20034;-68
2023/05/28 03:17:21;;;;;;;9.55;3.90;;;13.30;99.90;;;;;;5000521;28;20030;-68
2023/05/28 03:19:47;;;;;;;9.13;3.53;;;13.20;99.90;;;;;;5000224;28;20026;-68
2023/05/28 03:22:12;;;;;;;6.55;3.40;;;13.40;99.90;;;;;;4999689;28;20030;-68
2023/05/28 03:24:39;;;;;;;9.68;3.60;;;13.50;99.90;;;;;;5000320;28;20026;-68
2023/05/28 03:27:05;;;;;;;6.93;3.53;;;13.40;99.90;;;;;;5000154;28;20033;-68
2023/05/28 03:29:31;;;;;;;9.57;3.88;;;13.40;99.90;;;;;;4999621;28;20018;-68
2023/05/28 03:31:57;;;;;;;7.50;3.35;;;13.30;99.90;;;;;;4999827;28;20026;-68
2023/05/28 03:34:23;;;;;;;9.63;3.53;;;13.40;99.90;;;;;;4999396;28;20037;-68
2023/05/28 03:36:50;;;;;;;7.35;4.15;;;13.50;99.90;;;;;;5000593;28;20026;-68
2023/05/28 03:39:16;;;;;;;6.32;3.47;;;13.50;99.90;;;;;;5000224;28;20023;-68
2023/05/28 03:41:41;;;;;;;10.48;3.53;;;13.50;99.90;;;;;;4999571;28;20033;-68
2023/05/28 03:44:07;;;;;;;10.02;3.47;;;13.40;99.90;;;;;;4999584;28;20085;-68
2023/05/28 03:46:32;;;;;;;5.35;3.08;;;13.50;99.90;;;;;;4999524;28;20129;-68
2023/05/28 03:48:58;;;;;;;11.65;4.53;;;13.50;99.90;;;;;;4999308;28;20028;-68
2023/05/28 03:51:24;;;;;;;12.63;4.20;;;13.40;99.90;;;;;;4999423;28;20022;-68
2023/05/28 03:53:50;;;;;;;8.68;3.83;;;13.30;99.90;;;;;;4999363;28;20034;-68
2023/05/28 03:56:18;;;;;;;8.45;3.22;;;13.30;99.90;;;;;;4999163;28;20098;-68
2023/05/28 03:58:44;;;;;;;8.15;3.38;;;13.10;99.90;;;;;;4999076;28;20026;-68
2023/05/28 04:01:10;;;;;;;12.65;4.28;;;13.20;99.90;;;;;;4999791;28;20030;-68
2023/05/28 04:03:35;;;;;;;10.30;4.15;;;13.10;99.90;;;;;;4999367;28;20038;-68
2023/05/28 04:06:02;;;;;;;14.50;4.15;;;13.20;99.90;;;;;;4998887;28;20024;-68
2023/05/28 04:08:28;;;;;;;7.00;3.63;;;13.20;99.90;;;;;;5000085;28;20021;-68
2023/05/28 04:10:53;;;;;;;10.95;3.72;;;13.10;99.90;;;;;;4999088;28;20018;-68
2023/05/28 04:13:19;;;;;;;9.07;4.07;;;13.00;99.90;;;;;;4998797;28;20022;-68
2023/05/28 04:15:44;;;;;;;8.73;3.53;;;13.20;99.90;;;;;;4998835;28;20030;-68
2023/05/28 04:18:10;;;;;;;11.45;3.80;;;13.20;99.90;;;;;;4998659;28;20034;-68
2023/05/28 04:20:35;;;;;;;10.60;3.35;;;13.20;99.90;;;;;;4998979;28;20026;-68
2023/05/28 04:23:01;;;;;;;13.75;3.97;;;13.20;99.90;;;;;;4999768;28;20049;-68
2023/05/28 04:25:28;;;;;;;10.35;3.72;;;13.30;99.90;;;;;;4998735;28;20035;-68
2023/05/28 04:27:54;;;;;;;7.47;3.30;;;13.10;99.90;;;;;;4999608;28;20022;-68
2023/05/28 04:30:22;;;;;;;7.93;3.25;;;13.10;99.90;;;;;;4998619;28;20045;-68
2023/05/28 04:32:51;;;;;;;9.90;3.63;;;13.20;99.90;;;;;;4998675;28;20031;-68
2023/05/28 04:35:16;;;;;;;8.65;4.18;;;13.10;99.90;;;;;;4998299;28;20029;-68
2023/05/28 04:37:42;;;;;;;6.60;3.80;;;13.20;99.90;;;;;;4999089;28;20026;-68
2023/05/28 04:40:11;;;;;;;5.82;3.63;;;13.20;99.90;;;;;;4998174;28;20029;-68
2023/05/28 04:42:37;;;;;;;9.48;4.03;;;13.30;99.90;;;;;;4999132;28;20022;-68
2023/05/28 04:45:04;;;;;;;10.25;3.95;;;13.40;99.90;;;;;;4997995;28;20038;-68
2023/05/28 04:47:30;;;;;;;8.60;3.35;;;13.40;99.90;;;;;;4998057;28;20022;-68
2023/05/28 04:49:59;;;;;;;8.40;3.60;;;13.40;99.90;;;;;;4998929;28;20033;-68
2023/05/28 04:52:24;;;;;;;11.95;4.15;;;13.50;99.90;;;;;;4998029;28;20085;-68
2023/05/28 04:54:50;;;;;;;8.38;3.97;;;13.60;99.90;;;;;;4997912;28;20026;-68
2023/05/28 04:57:15;;;;;;;6.00;3.28;;;13.60;99.90;;;;;;4998185;28;20030;-68
2023/05/28 04:59:41;;;;;;;9.52;3.45;;;13.70;99.90;;;;;;4997859;28;20033;-68
2023/05/28 05:02:08;;;;;;;8.27;3.65;;;13.60;99.90;;;;;;4997733;28;20031;-68
2023/05/28 05:04:34;;;;;;;8.95;3.65;;;13.60;99.90;;;;;;4997629;28;20033;-68
2023/05/28 05:07:00;;;;;;;12.40;3.88;;;13.60;99.90;;;;;;4997758;28;20022;-68
2023/05/28 05:09:27;;;;;;;8.05;3.90;;;13.60;99.90;;;;;;4998838;28;20022;-68
2023/05/28 05:11:52;;;;;;;9.00;3.70;;;13.60;99.90;;;;;;4997737;28;20097;-68
2023/05/28 05:14:18;;;;;;;8.40;3.45;;;13.60;99.90;;;;;;4997492;28;20109;-68
2023/05/28 05:16:43;;;;;;;8.77;4.03;;;13.70;99.90;;;;;;4998507;28;20072;-68
2023/05/28 05:19:09;;;;;;;8.48;3.78;;;13.80;99.90;;;;;;4997526;28;20173;-68
2023/05/28 05:21:35;;;;;;;7.68;3.63;;;13.70;99.90;;;;;;4998081;28;20033;-68
2023/05/28 05:24:01;;;;;;;8.90;3.50;;;13.80;99.90;;;;;;4997424;28;20049;-68
2023/05/28 05:26:27;;;;;;;8.18;4.00;;;13.90;99.90;;;;;;4997736;28;20089;-68
2023/05/28 05:28:52;;;;;;;8.55;3.45;;;14.00;99.90;;;;;;4998207;28;20053;-68
2023/05/28 05:31:18;;;;;;;11.10;3.88;;;14.00;99.90;;;;;;4997338;28;20050;-68
2023/05/28 05:33:43;;;;;;;7.80;3.33;;;14.20;99.90;;;;;;4997756;28;20061;-68
2023/05/28 05:36:10;;;;;;;7.50;3.50;;;14.20;99.90;;;;;;4997163;28;20109;-68
2023/05/28 05:38:36;;;;;;;6.25;3.47;;;14.20;99.90;;;;;;4997894;28;20080;-68
2023/05/28 05:41:02;;;;;;;8.82;3.38;;;14.20;99.90;;;;;;4997232;28;20026;-68
2023/05/28 05:43:27;;;;;;;6.25;3.25;;;14.40;99.90;;;;;;4997210;28;20022;-68
2023/05/28 05:45:53;;;;;;;14.88;4.47;;;14.40;99.90;;;;;;4996911;28;20026;-68
2023/05/28 05:48:18;;;;;;;9.18;3.95;;;14.30;99.90;;;;;;4997221;28;20014;-68
2023/05/28 05:50:48;;;;;;;7.38;3.00;;;14.30;99.90;;;;;;4997777;28;20022;-68
2023/05/28 05:53:14;;;;;;;10.35;3.53;;;14.20;99.90;;;;;;4997258;28;20033;-68
2023/05/28 05:55:39;;;;;;;8.85;3.20;;;14.40;99.90;;;;;;4996830;28;20038;-68
2023/05/28 05:58:05;;;;;;;11.13;3.58;;;14.50;99.90;;;;;;4996935;28;20026;-68
2023/05/28 06:00:31;;;;;;;8.98;3.72;;;14.40;99.90;;;;;;4997292;28;20049;-68
2023/05/28 06:02:56;;;;;;;12.00;3.65;;;14.50;99.90;;;;;;4996766;28;20026;-68
2023/05/28 06:05:22;;;;;;;13.48;3.95;;;14.50;99.90;;;;;;4996831;28;20033;-68
2023/05/28 06:07:47;;;;;;;10.45;3.90;;;14.60;99.90;;;;;;4996821;28;20033;-68
2023/05/28 06:10:13;;;;;;;8.15;3.40;;;14.70;99.90;;;;;;4997623;28;20038;-68
2023/05/28 06:12:38;;;;;;;10.15;3.38;;;14.80;99.90;;;;;;4996832;28;20026;-68
2023/05/28 06:15:06;;;;;;;7.63;3.00;;;14.90;99.90;;;;;;4996634;28;20031;-68
2023/05/28 06:17:31;;;;;;;7.45;3.25;;;14.90;99.90;;;;;;4997772;28;20030;-68
2023/05/28 06:19:59;;;;;;;6.20;3.00;;;15.00;99.90;;;;;;4997844;28;20088;-68
2023/05/28 06:22:24;;;;;;;7.80;3.30;;;15.00;99.90;;;;;;4996647;28;20029;-68
2023/05/28 06:24:52;;;;;;;5.90;2.88;;;15.20;99.90;;;;;;4996984;28;20031;-68
2023/05/28 06:27:18;;;;;;;7.45;3.03;;;15.20;99.90;;;;;;4997580;28;20054;-68
2023/05/28 06:29:43;;;;;;;12.43;3.17;;;15.30;99.90;;;;;;4996941;28;20122;-68
2023/05/28 06:32:09;;;;;;;6.03;3.10;;;15.40;99.90;;;;;;4997528;28;20029;-68
2023/05/28 06:34:35;;;;;;;8.93;2.95;;;15.50;99.90;;;;;;4997782;28;20032;-68
2023/05/28 06:37:01;;;;;;;7.97;3.10;;;15.50;99.90;;;;;;4996935;28;20104;-68
2023/05/28 06:39:27;;;;;;;11.00;3.13;;;15.60;99.90;;;;;;4997328;28;20026;-68
2023/05/28 06:41:53;;;;;;;4.82;2.95;;;15.50;99.90;;;;;;4996594;28;20034;-68
2023/05/28 06:44:18;;;;;;;9.63;3.70;;;15.60;99.90;;;;;;4996443;28;20022;-68
2023/05/28 06:46:44;;;;;;;7.05;3.15;;;15.70;99.90;;;;;;4997166;28;20022;-68
2023/05/28 06:49:09;;;;;;;6.95;3.20;;;15.80;99.90;;;;;;4997359;28;20035;-68
2023/05/28 06:51:36;;;;;;;8.05;3.53;;;15.80;99.90;;;;;;4996412;28;20023;-68
2023/05/28 06:54:02;;;;;;;8.07;3.83;;;15.80;99.90;;;;;;4997018;28;20026;-68
2023/05/28 06:56:27;;;;;;;8.90;3.88;;;15.80;99.90;;;;;;4996302;28;20049;-68
2023/05/28 06:58:54;;;;;;;7.88;3.38;;;16.00;99.90;;;;;;4996506;28;20050;-68
2023/05/28 07:01:20;;;;;;;6.78;2.50;;;16.00;99.90;;;;;;4996480;28;20076;-68
2023/05/28 07:03:46;;;;;;;7.95;2.97;;;16.10;99.90;;;;;;4998460;28;20027;-68
2023/05/28 07:06:11;;;;;;;4.97;2.72;;;16.20;99.90;;;;;;5000969;28;20023;-68
2023/05/28 07:08:40;;;;;;;6.30;2.88;;;16.20;99.90;;;;;;5000329;28;20018;-68
2023/05/28 07:11:07;;;;;;;6.38;2.70;;;16.30;99.90;;;;;;5001116;28;20018;-68
2023/05/28 07:13:33;;;;;;;7.13;3.28;;;16.40;99.90;;;;;;5001062;28;20105;-68
2023/05/28 07:15:58;;;;;;;8.63;3.65;;;16.50;99.90;;;;;;5000527;28;20025;-68
2023/05/28 07:18:24;;;;;;;10.32;3.80;;;16.60;99.90;;;;;;5000410;28;20023;-68
2023/05/28 07:20:50;;;;;;;9.98;3.13;;;16.70;99.90;;;;;;5000653;28;20030;-68
2023/05/28 07:23:15;;;;;;;10.50;3.72;;;16.70;99.90;;;;;;5000006;28;20029;-68
2023/05/28 07:25:42;;;;;;;7.47;3.22;;;16.70;99.90;;;;;;5000080;28;20061;-68
2023/05/28 07:28:08;;;;;;;10.75;3.17;;;16.80;99.90;;;;;;4999569;28;20029;-68
2023/05/28 07:30:33;;;;;;;8.15;3.42;;;16.90;99.90;;;;;;4999923;28;20121;-68
2023/05/28 07:32:59;;;;;;;6.18;2.95;;;17.00;99.90;;;;;;4999900;28;20026;-68
2023/05/28 07:35:24;;;;;;;6.38;3.05;;;17.00;99.90;;;;;;4999245;28;20069;-68
2023/05/28 07:37:50;;;;;;;4.40;2.60;;;17.00;99.90;;;;;;5000503;28;20149;-68
2023/05/28 07:40:16;;;;;;;10.38;3.03;;;17.10;99.90;;;;;;4999443;28;20029;-68
2023/05/28 07:42:41;;;;;;;6.68;2.85;;;17.20;99.90;;;;;;5000297;28;20022;-68
2023/05/28 07:45:07;;;;;;;9.38;3.20;;;17.30;99.90;;;;;;4999152;28;20062;-68
2023/05/28 07:47:33;;;;;;;6.10;2.83;;;17.30;99.90;;;;;;4999600;28;20030;-68
2023/05/28 07:49:59;;;;;;;9.90;2.90;;;17.40;99.90;;;;;;4999677;28;20081;-68
2023/05/28 07:52:29;;;;;;;8.80;3.25;;;17.40;99.90;;;;;;4999155;28;20026;-68
2023/05/28 07:54:58;;;;;;;9.07;2.88;;;17.50;99.90;;;;;;5000172;28;20113;-68
2023/05/28 07:57:24;;;;;;;6.97;3.08;;;17.50;99.90;;;;;;4999028;28;20030;-68
2023/05/28 07:59:50;;;;;;;7.25;2.92;;;17.60;99.90;;;;;;4999926;28;20053;-68
2023/05/28 08:02:16;;;;;;;10.55;3.50;;;17.70;99.90;;;;;;4998985;28;20022;-68
2023/05/28 08:04:41;;;;;;;9.52;2.88;;;17.80;99.90;;;;;;4999238;28;20023;-68
2023/05/28 08:07:07;;;;;;;9.13;2.97;;;17.80;99.90;;;;;;4998973;28;20026;-69
2023/05/28 08:09:33;;;;;;;8.25;2.72;;;17.90;99.90;;;;;;4998829;28;20033;-68
2023/05/28 08:12:01;;;;;;;7.18;2.75;;;18.00;99.90;;;;;;5000076;28;20030;-69
2023/05/28 08:14:27;;;;;;;7.55;2.67;;;18.20;99.90;;;;;;4999437;28;20029;-69
2023/05/28 08:16:53;;;;;;;4.97;2.60;;;18.30;99.90;;;;;;4998793;28;20023;-73
2023/05/28 08:19:18;;;;;;;9.88;3.05;;;18.20;99.90;;;;;;4998937;28;20030;-70
2023/05/28 08:21:44;;;;;;;5.40;2.83;;;18.30;99.90;;;;;;4998637;28;20033;-70
2023/05/28 08:24:10;;;;;;;8.77;2.60;;;18.40;99.90;;;;;;4998582;28;20081;-70
2023/05/28 08:26:36;;;;;;;4.72;2.15;;;18.60;99.90;;;;;;4998771;28;20034;-70
2023/05/28 08:29:03;;;;;;;7.65;2.65;;;18.70;99.90;;;;;;4998523;28;20117;-70
2023/05/28 08:31:29;;;;;;;7.28;2.72;;;18.70;99.90;;;;;;4999275;28;20041;-69
2023/05/28 08:33:54;;;;;;;5.20;2.55;;;18.80;99.90;;;;;;4998369;28;20026;-70
2023/05/28 08:36:20;;;;;;;5.82;2.60;;;18.80;99.90;;;;;;4998651;28;20022;-70
2023/05/28 08:38:46;;;;;;;8.88;2.95;;;18.90;99.90;;;;;;4998242;28;20022;-71
2023/05/28 08:41:12;;;;;;;6.85;2.65;;;18.90;99.90;;;;;;4998571;28;20026;-70
2023/05/28 08:43:37;;;;;;;8.15;2.45;;;18.90;99.90;;;;;;4998122;28;20109;-71
2023/05/28 08:46:04;;;;;;;11.10;3.45;;;19.10;99.90;;;;;;4998109;28;20077;-70
2023/05/28 08:48:33;;;;;;;7.07;2.67;;;19.30;99.90;;;;;;4998111;28;20045;-70
2023/05/28 08:50:59;;;;;;;4.78;2.15;;;19.50;99.90;;;;;;4998123;28;20026;-70
2023/05/28 08:53:29;;;;;;;6.47;2.67;;;19.60;99.90;;;;;;4998016;28;20168;-70
2023/05/28 08:55:55;;;;;;;6.32;2.78;;;19.60;99.90;;;;;;4998326;28;20089;-70
2023/05/28 08:58:21;;;;;;;6.20;2.65;;;19.60;99.90;;;;;;4998037;28;20052;-69
2023/05/28 09:00:50;;;;;;;5.47;2.15;;;19.90;99.90;;;;;;4998593;28;20026;-70
2023/05/28 09:03:16;;;;;;;4.65;2.72;;;19.90;99.90;;;;;;4998996;28;20022;-70
2023/05/28 09:05:42;;;;;;;6.22;2.55;;;19.90;99.90;;;;;;4997688;28;20113;-70
2023/05/28 09:08:09;;;;;;;10.57;3.00;;;19.90;99.90;;;;;;4997948;28;20027;-70
2023/05/28 09:10:36;;;;;;;10.88;3.08;;;20.10;99.90;;;;;;4997680;28;20029;-70
2023/05/28 09:13:02;;;;;;;6.88;2.72;;;20.10;99.90;;;;;;4998769;28;20097;-70
2023/05/28 09:15:29;;;;;;;7.25;2.67;;;20.10;99.90;;;;;;4998571;28;20061;-70
2023/05/28 09:17:55;;;;;;;9.55;2.78;;;20.10;99.90;;;;;;4998761;28;20021;-70
2023/05/28 09:20:21;;;;;;;7.30;3.03;;;20.40;99.90;;;;;;4997550;28;20027;-70
2023/05/28 09:22:58;;;;;;;8.25;2.30;;;20.50;99.90;;;;;;4997896;28;20030;-69
2023/05/28 09:25:24;;;;;;;7.15;2.80;;;21.00;99.90;;;;;;4997482;28;20078;-69
2023/05/28 09:27:50;;;;;;;4.40;2.53;;;21.10;99.90;;;;;;4998357;28;20041;-68
2023/05/28 09:30:15;;;;;;;11.55;3.10;;;21.00;99.90;;;;;;4997334;28;20022;-70
2023/05/28 09:32:41;;;;;;;6.63;3.03;;;21.10;99.90;;;;;;4998099;28;20065;-70
2023/05/28 09:35:07;;;;;;;9.93;2.90;;;21.10;99.90;;;;;;4997728;28;20023;-70
2023/05/28 09:37:35;;;;;;;12.30;3.10;;;21.10;99.90;;;;;;4998408;28;20045;-70
2023/05/28 09:40:07;;;;;;;7.63;3.85;;;21.10;99.90;;;;;;4997284;28;20116;-71
2023/05/28 09:42:41;;;;;;;6.65;2.97;;;21.10;99.90;;;;;;4997361;28;20030;-71
2023/05/28 09:45:08;;;;;;;7.63;2.88;;;21.30;99.90;;;;;;4997216;28;20061;-72
2023/05/28 09:47:44;;;;;;;7.65;2.97;;;21.60;99.90;;;;;;4997929;28;20030;-72
2023/05/28 09:50:11;;;;;;;6.07;2.83;;;21.80;99.90;;;;;;4998116;28;20081;-72
2023/05/28 09:52:40;;;;;;;4.93;2.83;;;22.00;99.90;;;;;;4997361;28;20026;-74
2023/05/28 09:55:07;;;;;;;7.55;3.03;;;22.10;99.90;;;;;;4996698;28;20112;-72
2023/05/28 09:57:35;;;;;;;8.23;2.90;;;22.00;99.90;;;;;;4996721;28;20026;-72
2023/05/28 10:00:13;;;;;;;6.25;3.08;;;22.10;99.90;;;;;;4997099;28;20029;-72
2023/05/28 10:02:44;;;;;;;8.98;2.38;;;22.00;99.90;;;;;;4997993;28;20105;-72
2023/05/28 10:05:13;;;;;;;8.25;2.67;;;22.00;99.90;;;;;;4997654;28;20105;-72
2023/05/28 10:07:44;;;;;;;4.57;2.47;;;22.20;99.90;;;;;;4996880;28;20084;-72
2023/05/28 10:10:12;;;;;;;6.00;2.65;;;22.50;99.90;;;;;;4997650;28;20027;-72
2023/05/28 10:12:38;;;;;;;8.35;2.63;;;22.90;99.90;;;;;;4997582;28;20027;-72
2023/05/28 10:15:06;;;;;;;8.57;2.97;;;22.80;99.90;;;;;;4996793;28;20031;-72
2023/05/28 10:17:32;;;;;;;6.30;3.13;;;22.50;99.90;;;;;;4996777;28;20072;-72
2023/05/28 10:19:57;;;;;;;7.20;2.80;;;22.80;99.90;;;;;;4996795;28;20026;-71
2023/05/28 10:22:23;;;;;;;8.75;2.70;;;22.90;99.90;;;;;;4997562;28;20037;-71
2023/05/28 10:24:50;;;;;;;6.60;2.78;;;23.00;99.80;;;;;;4996604;28;20033;-71
2023/05/28 10:27:16;;;;;;;4.93;2.97;;;23.60;97.10;;;;;;4997760;28;20022;-71
2023/05/28 10:29:47;;;;;;;8.00;2.35;;;23.70;96.40;;;;;;4996640;28;20034;-71
2023/05/28 10:32:17;;;;;;;4.75;2.40;;;23.70;96.40;;;;;;4996769;28;20094;-71
2023/05/28 10:34:43;;;;;;;10.10;2.80;;;23.90;96.50;;;;;;4996349;28;20066;-71
2023/05/28 10:37:10;;;;;;;5.22;3.00;;;24.30;94.40;;;;;;4996891;28;20026;-71
2023/05/28 10:39:40;;;;;;;6.55;3.10;;;24.50;95.20;;;;;;5000185;28;20026;-71
2023/05/28 10:42:13;;;;;;;5.53;3.08;;;24.90;94.90;;;;;;5000759;28;20026;-71
2023/05/28 10:45:03;;;;;;;6.85;3.08;;;25.00;94.40;;;;;;5000667;28;20022;-72
2023/05/28 10:47:32;;;;;;;7.60;2.80;;;25.00;95.90;;;;;;5000689;28;20121;-72
2023/05/28 10:50:00;;;;;;;7.55;3.03;;;25.20;92.60;;;;;;5000452;28;20034;-72
2023/05/28 10:52:26;;;;;;;4.00;2.45;;;25.30;92.80;;;;;;5001074;28;20029;-72
2023/05/28 10:54:53;;;;;;;6.30;2.90;;;25.30;93.30;;;;;;5000224;28;20113;-72
2023/05/28 10:57:23;;;;;;;9.88;3.20;;;25.40;91.40;;;;;;5000941;28;20049;-72
2023/05/28 10:59:52;;;;;;;5.40;3.33;;;25.60;90.60;;;;;;5000213;28;20026;-72
2023/05/28 11:02:21;;;;;;;5.65;2.60;;;25.60;89.70;;;;;;4999952;28;20022;-72
2023/05/28 11:04:50;;;;;;;6.97;2.80;;;25.80;89.00;;;;;;5000893;28;20077;-72
2023/05/28 11:07:17;;;;;;;10.45;2.92;;;25.90;90.20;;;;;;5000866;28;20095;-72
2023/05/28 11:09:48;;;;;;;4.20;2.67;;;25.90;91.40;;;;;;5000031;28;20026;-72
2023/05/28 11:12:14;;;;;;;9.27;3.58;;;26.30;86.90;;;;;;5000037;28;20034;-72
2023/05/28 11:14:39;;;;;;;6.22;2.95;;;26.60;82.20;;;;;;4999808;28;20097;-72
2023/05/28 11:17:10;;;;;;;7.43;3.15;;;26.30;80.00;;;;;;5000765;28;20054;-72
2023/05/28 11:19:47;;;;;;;5.72;3.00;;;26.20;81.30;;;;;;5000573;28;20022;-72
2023/05/28 11:22:14;;;;;;;5.30;2.70;;;26.70;83.20;;;;;;5000664;28;20026;-72
2023/05/28 11:25:09;;;;;;;4.60;2.80;;;26.90;80.40;;;;;;5000332;28;20155;-72
2023/05/28 11:27:37;;;;;;;5.07;2.97;;;27.20;78.30;;;;;;4963429;28;20086;-72
2023/05/28 11:30:16;;;;;;;8.75;3.08;;;27.30;79.90;;;;;;4979582;28;20027;-72
2023/05/28 11:32:43;;;;;;;5.78;3.13;;;27.40;74.50;;;;;;4979924;28;20050;-72
2023/05/28 11:35:13;;;;;;;6.45;2.85;;;27.30;76.90;;;;;;4979318;28;20069;-72
2023/05/28 11:37:40;;;;;;;11.27;3.35;;;27.50;75.50;;;;;;4963261;28;20123;-72
2023/05/28 11:40:11;;;;;;;9.05;3.00;;;27.50;73.60;;;;;;4963337;28;20031;-72
2023/05/28 11:42:41;;;;;;;5.93;3.08;;;27.30;72.70;;;;;;4963682;28;20125;-72
2023/05/28 11:45:08;;;;;;;5.25;3.72;;;27.70;74.10;;;;;;4979732;28;20034;-72
2023/05/28 11:47:35;;;;;;;5.63;3.67;;;27.90;71.00;;;;;;4979124;28;20103;-72
2023/05/28 11:50:08;;;;;;;4.97;2.50;;;28.00;67.50;;;;;;4962511;28;20087;-72
2023/05/28 11:52:33;;;;;;;4.95;3.00;;;28.40;71.80;;;;;;4963520;28;20035;-72
2023/05/28 11:55:01;;;;;;;8.02;2.88;;;28.50;69.10;;;;;;4962670;28;20034;-72
2023/05/28 11:57:28;;;;;;;5.75;3.63;;;28.40;68.50;;;;;;4979194;28;20031;-72
2023/05/28 11:59:55;;;;;;;7.45;3.55;;;28.50;74.20;;;;;;4962894;28;20034;-72
2023/05/28 12:02:22;;;;;;;7.05;3.20;;;28.70;65.90;;;;;;4979075;28;20023;-72
2023/05/28 12:04:56;;;;;;;7.28;3.28;;;28.60;65.40;;;;;;4996718;28;20056;-72
2023/05/28 12:07:22;;;;;;;4.10;2.78;;;28.60;66.20;;;;;;4999019;28;20028;-72
2023/05/28 12:09:47;;;;;;;6.75;3.20;;;28.70;71.50;;;;;;4998960;28;20077;-72
2023/05/28 12:12:13;;;;;;;4.82;3.22;;;28.70;69.70;;;;;;4999840;28;20049;-72
2023/05/28 12:14:39;;;;;;;5.25;3.30;;;28.80;69.70;;;;;;4999889;28;20053;-72
2023/05/28 12:17:08;;;;;;;4.93;2.80;;;29.00;70.30;;;;;;4998821;28;20026;-72
2023/05/28 12:19:35;;;;;;;6.63;3.53;;;29.20;69.00;;;;;;4998748;28;20030;-72
2023/05/28 12:22:02;;;;;;;5.97;3.40;;;28.70;63.00;;;;;;4998605;28;20061;-72
2023/05/28 12:24:28;;;;;;;5.05;3.10;;;28.20;65.70;;;;;;4998408;28;20030;-72
2023/05/28 12:26:53;;;;;;;9.15;4.00;;;28.70;65.30;;;;;;4999814;28;20032;-72
2023/05/28 12:29:19;;;;;;;4.80;3.22;;;28.60;63.70;;;;;;4998403;28;20033;-72
2023/05/28 12:31:45;;;;;;;6.10;3.80;;;28.70;66.20;;;;;;4998777;28;20034;-72
2023/05/28 12:34:11;;;;;;;6.10;3.15;;;28.50;61.90;;;;;;4998190;28;20054;-72
2023/05/28 12:36:36;;;;;;;6.22;3.33;;;27.80;63.00;;;;;;4998459;28;20029;-72
2023/05/28 12:39:03;;;;;;;9.50;3.60;;;27.90;64.20;;;;;;4999131;28;20030;-72
2023/05/28 12:41:29;;;;;;;5.50;3.40;;;28.00;67.90;;;;;;4999133;28;20094;-73
2023/05/28 12:43:54;;;;;;;6.90;3.72;;;28.00;60.80;;;;;;4998147;28;20053;-72